createdAt,value
2023-01-20T00:01:49.353Z,46.62
2023-01-20T00:06:51.630Z,46.75
2023-01-20T00:11:53.605Z,47.03
2023-01-20T00:16:57.705Z,46.88
2023-01-20T00:22:00.311Z,47.14
2023-01-20T00:27:02.533Z,47.14
2023-01-20T00:32:05.527Z,47.05
2023-01-20T00:37:08.455Z,47.27
2023-01-20T00:42:10.521Z,47.25
2023-01-20T00:47:12.513Z,47.25
2023-01-20T00:52:16.083Z,46.78
2023-01-20T00:57:18.721Z,46.83
2023-01-20T01:02:22.189Z,46.68
2023-01-20T01:07:26.816Z,46.94
2023-01-20T01:12:28.873Z,46.79
2023-01-20T01:17:30.853Z,47.20
2023-01-20T01:22:35.244Z,46.89
2023-01-20T01:27:37.752Z,46.48
2023-01-20T01:32:42.270Z,46.50
2023-01-20T01:37:45.336Z,46.68
2023-01-20T01:42:47.497Z,46.64
2023-01-20T01:48:06.044Z,46.55
2023-01-20T01:53:09.754Z,46.63
2023-01-20T01:58:17.046Z,46.74
2023-01-20T02:03:22.811Z,47.03
2023-01-20T02:08:26.326Z,46.90
2023-01-20T02:13:29.081Z,46.79
2023-01-20T02:18:51.607Z,46.67
2023-01-20T02:23:56.866Z,46.79
2023-01-20T02:29:14.431Z,47.03
2023-01-20T02:34:31.800Z,46.64
2023-01-20T02:39:42.924Z,46.94
2023-01-20T02:44:54.058Z,46.85
2023-01-20T02:50:05.833Z,46.62
2023-01-20T02:55:12.717Z,46.84
2023-01-20T03:00:23.391Z,46.88
2023-01-20T03:05:43.136Z,46.82
2023-01-20T03:10:48.130Z,46.90
2023-01-20T03:15:53.234Z,46.83
2023-01-20T03:20:55.839Z,46.77
2023-01-20T03:25:58.690Z,47.02
2023-01-20T03:31:07.728Z,47.24
2023-01-20T03:36:11.435Z,47.14
2023-01-20T03:41:44.813Z,46.88
2023-01-20T03:46:54.410Z,47.31
2023-01-20T03:52:09.229Z,47.33
2023-01-20T03:57:17.382Z,47.16
2023-01-20T04:02:22.570Z,47.42
2023-01-20T04:07:27.036Z,47.33
2023-01-20T04:12:29.644Z,47.44
2023-01-20T04:17:32.030Z,47.62
2023-01-20T04:22:53.837Z,47.80
2023-01-20T04:27:56.260Z,47.87
2023-01-20T04:32:58.331Z,47.75
2023-01-20T04:38:00.376Z,47.66
2023-01-20T04:43:02.075Z,47.87
2023-01-20T04:48:08.210Z,47.81
2023-01-20T04:53:17.037Z,47.89
2023-01-20T04:58:18.709Z,47.83
2023-01-20T05:03:20.345Z,47.94
2023-01-20T05:08:22.404Z,47.99
2023-01-20T05:13:24.452Z,47.94
2023-01-20T05:18:26.176Z,48.11
2023-01-20T05:23:27.925Z,47.99
2023-01-20T05:28:29.832Z,48.14
2023-01-20T05:33:31.639Z,48.05
2023-01-20T05:38:33.505Z,48.35
2023-01-20T05:43:35.783Z,48.41
2023-01-20T05:48:37.485Z,48.84
2023-01-20T05:53:39.882Z,48.71
2023-01-20T05:58:42.245Z,48.72
2023-01-20T06:03:44.016Z,48.56
2023-01-20T06:08:46.342Z,48.86
2023-01-20T06:13:48.626Z,48.89
2023-01-20T06:18:50.324Z,49.11
2023-01-20T06:23:53.313Z,49.21
2023-01-20T06:28:59.547Z,49.64
2023-01-20T06:34:01.650Z,49.64
2023-01-20T06:39:03.637Z,49.45
2023-01-20T06:44:05.396Z,49.55
2023-01-20T06:49:07.359Z,49.77
2023-01-20T06:54:09.558Z,49.92
2023-01-20T06:59:12.000Z,50.00
2023-01-20T07:04:14.464Z,50.01
2023-01-20T07:09:16.241Z,50.12
2023-01-20T07:14:17.970Z,50.24
2023-01-20T07:19:19.689Z,50.33
2023-01-20T07:24:21.601Z,50.34
2023-01-20T07:29:23.492Z,50.32
2023-01-20T07:34:25.594Z,50.24
2023-01-20T07:39:27.464Z,50.15
2023-01-20T07:44:29.261Z,50.50
2023-01-20T07:49:31.046Z,50.66
2023-01-20T07:54:32.781Z,50.67
2023-01-20T07:59:34.467Z,51.05
2023-01-20T08:04:36.344Z,50.75
2023-01-20T08:09:38.145Z,50.76
2023-01-20T08:14:39.812Z,50.78
2023-01-20T08:19:41.805Z,50.93
2023-01-20T08:24:43.748Z,50.94
2023-01-20T08:29:45.808Z,51.15
2023-01-20T08:34:47.694Z,51.46
2023-01-20T08:39:49.894Z,50.87
2023-01-20T08:44:53.604Z,51.23
2023-01-20T08:49:56.422Z,51.50
2023-01-20T08:54:58.985Z,51.29
2023-01-20T09:00:00.769Z,51.47
2023-01-20T09:05:04.344Z,51.63
2023-01-20T09:10:06.843Z,51.36
2023-01-20T09:15:09.311Z,51.37
2023-01-20T09:20:11.644Z,51.56
2023-01-20T09:25:13.873Z,51.17
2023-01-20T09:30:16.010Z,51.20
2023-01-20T09:35:18.337Z,51.25
2023-01-20T09:40:48.587Z,50.95
2023-01-20T09:46:01.491Z,51.14
2023-01-20T09:51:32.886Z,51.46
2023-01-20T09:56:41.358Z,51.10
2023-01-20T10:01:48.501Z,51.19
2023-01-20T10:06:54.769Z,51.38
2023-01-20T10:12:07.410Z,51.38
2023-01-20T10:17:22.599Z,50.79
2023-01-20T10:22:34.554Z,50.94
2023-01-20T10:27:42.913Z,50.87
2023-01-20T10:33:26.202Z,51.40
2023-01-20T10:38:54.381Z,50.92
2023-01-20T10:43:58.219Z,51.15
2023-01-20T10:49:18.837Z,51.30
2023-01-20T10:55:15.399Z,51.42
2023-01-20T11:00:23.878Z,51.57
2023-01-20T11:05:32.538Z,51.42
2023-01-20T11:10:34.542Z,51.18
2023-01-20T11:15:41.192Z,50.96
2023-01-20T11:21:02.024Z,51.05
2023-01-20T11:26:16.231Z,51.63
2023-01-20T11:31:19.335Z,51.63
2023-01-20T11:36:24.035Z,51.45
2023-01-20T11:41:28.973Z,51.34
2023-01-20T11:46:33.175Z,51.32
2023-01-20T11:51:45.616Z,51.48
2023-01-20T11:56:52.480Z,51.14
2023-01-20T12:02:01.889Z,51.52
2023-01-20T12:07:25.647Z,51.32
2023-01-20T12:12:30.851Z,51.31
2023-01-20T12:17:44.145Z,51.17
2023-01-20T12:23:01.560Z,51.03
2023-01-20T12:28:12.681Z,51.00
2023-01-20T12:33:22.107Z,51.22
2023-01-20T12:38:25.012Z,51.12
2023-01-20T12:44:04.020Z,51.17
2023-01-20T12:49:24.414Z,50.82
2023-01-20T12:54:48.295Z,50.83
2023-01-20T13:00:09.458Z,51.03
2023-01-20T13:05:42.407Z,50.77
2023-01-20T13:10:56.538Z,51.13
2023-01-20T13:16:09.030Z,50.95
2023-01-20T13:21:20.961Z,50.56
2023-01-20T13:26:22.815Z,50.61
2023-01-20T13:31:36.951Z,50.22
2023-01-20T13:36:39.021Z,50.45
2023-01-20T13:41:51.829Z,50.01
2023-01-20T13:46:56.184Z,50.33
2023-01-20T13:51:58.151Z,50.25
2023-01-20T13:57:23.278Z,49.73
2023-01-20T14:02:29.006Z,50.10
2023-01-20T14:07:33.242Z,50.37
2023-01-20T14:12:41.151Z,49.91
2023-01-20T14:17:42.937Z,49.89
2023-01-20T14:22:44.628Z,50.42
2023-01-20T14:27:46.349Z,49.80
2023-01-20T14:32:48.526Z,49.92
2023-01-20T14:37:52.257Z,50.00
2023-01-20T14:42:59.177Z,50.31
2023-01-20T14:48:02.793Z,50.55
2023-01-20T14:53:05.188Z,50.35
2023-01-20T14:58:16.174Z,50.42
2023-01-20T15:03:17.937Z,50.17
2023-01-20T15:08:33.758Z,50.22
2023-01-20T15:13:37.687Z,50.67
2023-01-20T15:18:40.609Z,50.79
2023-01-20T15:23:44.260Z,50.73
2023-01-20T15:28:45.995Z,50.86
2023-01-20T15:33:47.779Z,50.87
2023-01-20T15:38:50.701Z,51.02
2023-01-20T15:43:52.737Z,51.12
2023-01-20T15:48:54.539Z,51.00
2023-01-20T15:53:56.446Z,50.81
2023-01-20T15:58:58.159Z,50.71
2023-01-20T16:04:00.116Z,50.79
2023-01-20T16:09:04.064Z,51.09
2023-01-20T16:14:05.893Z,50.77
2023-01-20T16:19:07.793Z,50.74
2023-01-20T16:24:10.551Z,51.02
2023-01-20T16:29:12.599Z,50.99
2023-01-20T16:34:15.819Z,51.21
2023-01-20T16:39:17.482Z,51.27
2023-01-20T16:44:19.165Z,51.30
2023-01-20T16:49:22.681Z,51.32
2023-01-20T16:54:24.595Z,51.40
2023-01-20T16:59:26.348Z,51.33
2023-01-20T17:04:29.393Z,51.56
2023-01-20T17:09:31.122Z,51.36
2023-01-20T17:14:33.059Z,51.38
2023-01-20T17:19:34.790Z,51.30
2023-01-20T17:24:36.681Z,51.40
2023-01-20T17:29:38.415Z,51.01
2023-01-20T17:34:40.078Z,51.43
2023-01-20T17:39:42.754Z,51.37
2023-01-20T17:44:44.624Z,51.67
2023-01-20T17:49:47.320Z,51.53
2023-01-20T17:54:49.909Z,51.55
2023-01-20T17:59:52.938Z,51.44
2023-01-20T18:04:56.848Z,51.12
2023-01-20T18:09:59.743Z,51.53
2023-01-20T18:15:03.959Z,51.40
2023-01-20T18:20:07.204Z,51.10
2023-01-20T18:25:12.331Z,51.19
2023-01-20T18:30:15.325Z,51.13
2023-01-20T18:35:17.785Z,51.38
2023-01-20T18:40:22.366Z,50.72
2023-01-20T18:45:27.615Z,51.21
2023-01-20T18:50:29.664Z,50.79
2023-01-20T18:55:31.668Z,50.85
2023-01-20T19:00:33.891Z,51.04
2023-01-20T19:05:36.127Z,51.35
2023-01-20T19:10:38.180Z,51.19
2023-01-20T19:15:40.769Z,51.27
2023-01-20T19:20:43.426Z,51.11
2023-01-20T19:25:45.790Z,51.29
2023-01-20T19:30:47.847Z,51.41
2023-01-20T19:35:49.744Z,51.65
2023-01-20T19:40:51.504Z,51.38
2023-01-20T19:45:53.292Z,51.82
2023-01-20T19:50:55.244Z,51.95
2023-01-20T19:56:15.470Z,51.82
2023-01-20T20:01:23.073Z,51.78
2023-01-20T20:06:29.698Z,51.80
2023-01-20T20:11:32.154Z,52.09
2023-01-20T20:16:36.576Z,52.56
2023-01-20T20:21:38.353Z,52.49
2023-01-20T20:26:41.983Z,52.64
2023-01-20T20:31:43.828Z,52.51
2023-01-20T20:36:46.411Z,52.69
2023-01-20T20:41:48.422Z,52.54
2023-01-20T20:46:50.345Z,52.99
2023-01-20T20:51:52.855Z,52.70
2023-01-20T20:56:54.985Z,52.69
2023-01-20T21:01:57.100Z,52.75
2023-01-20T21:06:58.972Z,53.02
2023-01-20T21:12:00.848Z,52.87
2023-01-20T21:17:04.121Z,53.04
2023-01-20T21:22:06.132Z,53.06
2023-01-20T21:27:08.489Z,52.72
2023-01-20T21:32:10.845Z,52.75
2023-01-20T21:37:12.942Z,52.95
2023-01-20T21:42:15.189Z,52.70
2023-01-20T21:47:17.329Z,52.35
2023-01-20T21:52:40.893Z,52.72
2023-01-20T21:57:43.270Z,52.25
2023-01-20T22:02:45.446Z,52.20
2023-01-20T22:07:48.730Z,52.67
2023-01-20T22:12:51.062Z,52.26
2023-01-20T22:17:52.929Z,52.30
2023-01-20T22:22:55.535Z,52.66
2023-01-20T22:27:57.656Z,52.52
2023-01-20T22:32:59.704Z,52.33
2023-01-20T22:38:01.648Z,52.24
2023-01-20T22:43:03.776Z,51.98
2023-01-20T22:48:07.145Z,51.98
2023-01-20T22:53:09.340Z,52.19
2023-01-20T22:58:12.503Z,52.24
2023-01-20T23:03:14.514Z,52.01
2023-01-20T23:08:16.478Z,52.29
2023-01-20T23:13:19.141Z,52.18
2023-01-20T23:18:22.649Z,52.73
2023-01-20T23:23:26.560Z,52.66
2023-01-20T23:28:28.896Z,52.64
2023-01-20T23:33:32.329Z,52.80
2023-01-20T23:38:34.687Z,52.46
2023-01-20T23:43:37.095Z,52.56
2023-01-20T23:48:39.618Z,52.50
2023-01-20T23:53:42.322Z,52.30
2023-01-20T23:58:45.589Z,52.86
